createdAt,value
2022-09-30T00:01:14.756Z,12.21
2022-09-30T00:03:41.371Z,12.14
2022-09-30T00:06:09.133Z,12.14
2022-09-30T00:08:36.726Z,12.22
2022-09-30T00:11:04.857Z,12.16
2022-09-30T00:13:32.540Z,12.11
2022-09-30T00:15:59.121Z,11.93
2022-09-30T00:18:26.141Z,11.90
2022-09-30T00:20:53.231Z,11.99
2022-09-30T00:23:20.579Z,12.16
2022-09-30T00:25:48.142Z,12.05
2022-09-30T00:28:15.367Z,12.07
2022-09-30T00:30:42.122Z,12.13
2022-09-30T00:33:08.831Z,11.93
2022-09-30T00:35:36.292Z,12.11
2022-09-30T00:38:02.771Z,12.01
2022-09-30T00:40:30.312Z,12.03
2022-09-30T00:42:58.911Z,12.03
2022-09-30T00:45:26.578Z,12.04
2022-09-30T00:47:54.340Z,12.07
2022-09-30T00:50:34.900Z,12.18
2022-09-30T00:53:01.291Z,12.24
2022-09-30T00:55:48.498Z,12.27
2022-09-30T00:58:18.513Z,12.19
2022-09-30T01:00:45.041Z,12.24
2022-09-30T01:03:11.505Z,12.27
2022-09-30T01:05:38.008Z,12.22
2022-09-30T01:08:05.546Z,12.09
2022-09-30T01:10:31.969Z,12.23
2022-09-30T01:12:59.166Z,12.04
2022-09-30T01:15:35.367Z,12.05
2022-09-30T01:18:25.369Z,12.08
2022-09-30T01:21:07.678Z,12.11
2022-09-30T01:23:45.658Z,12.10
2022-09-30T01:26:12.069Z,12.10
2022-09-30T01:29:00.092Z,11.96
2022-09-30T01:31:59.606Z,11.97
2022-09-30T01:34:45.121Z,12.11
2022-09-30T01:37:23.787Z,12.19
2022-09-30T01:39:53.197Z,12.25
2022-09-30T01:42:26.095Z,12.17
2022-09-30T01:44:53.454Z,12.09
2022-09-30T01:47:22.682Z,12.13
2022-09-30T01:49:53.669Z,12.19
2022-09-30T01:52:25.975Z,12.11
2022-09-30T01:54:55.132Z,12.21
2022-09-30T01:57:25.397Z,12.26
2022-09-30T01:59:56.996Z,12.30
2022-09-30T02:02:26.497Z,12.24
2022-09-30T02:05:16.318Z,12.24
2022-09-30T02:07:45.438Z,12.34
2022-09-30T02:10:22.060Z,12.33
2022-09-30T02:13:03.368Z,12.31
2022-09-30T02:15:38.490Z,12.33
2022-09-30T02:18:16.010Z,12.27
2022-09-30T02:20:43.301Z,12.35
2022-09-30T02:23:14.119Z,12.45
2022-09-30T02:25:47.257Z,12.22
2022-09-30T02:28:20.878Z,12.26
2022-09-30T02:30:50.245Z,12.53
2022-09-30T02:33:22.946Z,12.38
2022-09-30T02:35:52.642Z,12.56
2022-09-30T02:38:20.562Z,12.53
2022-09-30T02:41:10.546Z,12.35
2022-09-30T02:43:37.196Z,12.26
2022-09-30T02:46:15.965Z,12.43
2022-09-30T02:48:45.571Z,12.34
2022-09-30T02:51:25.042Z,12.25
2022-09-30T02:54:00.694Z,12.27
2022-09-30T02:56:27.174Z,12.11
2022-09-30T02:58:56.241Z,12.27
2022-09-30T03:01:24.092Z,12.23
2022-09-30T03:03:55.764Z,12.19
2022-09-30T03:06:22.696Z,12.14
2022-09-30T03:08:49.301Z,12.04
2022-09-30T03:11:18.043Z,11.98
2022-09-30T03:13:59.512Z,12.03
2022-09-30T03:16:39.000Z,12.19
2022-09-30T03:19:20.876Z,12.02
2022-09-30T03:22:15.205Z,11.91
2022-09-30T03:25:00.494Z,11.90
2022-09-30T03:27:43.797Z,11.92
2022-09-30T03:30:24.240Z,11.97
2022-09-30T03:33:12.275Z,12.16
2022-09-30T03:35:48.921Z,12.11
2022-09-30T03:38:25.075Z,12.10
2022-09-30T03:40:57.571Z,12.05
2022-09-30T03:43:25.652Z,12.19
2022-09-30T03:46:15.071Z,12.26
2022-09-30T03:48:43.110Z,12.20
2022-09-30T03:51:09.690Z,12.29
2022-09-30T03:53:40.304Z,12.00
2022-09-30T03:56:07.106Z,12.26
2022-09-30T03:58:34.797Z,12.17
2022-09-30T04:01:01.199Z,12.13
2022-09-30T04:03:28.517Z,12.07
2022-09-30T04:05:55.101Z,12.09
2022-09-30T04:08:23.001Z,12.04
2022-09-30T04:10:49.472Z,11.94
2022-09-30T04:13:15.885Z,12.28
2022-09-30T04:15:42.382Z,12.52
2022-09-30T04:18:08.898Z,12.36
2022-09-30T04:20:35.353Z,12.24
2022-09-30T04:23:02.136Z,12.23
2022-09-30T04:25:28.584Z,12.19
2022-09-30T04:27:55.319Z,12.08
2022-09-30T04:30:25.651Z,12.30
2022-09-30T04:32:53.853Z,12.20
2022-09-30T04:35:20.461Z,12.05
2022-09-30T04:37:47.649Z,12.03
2022-09-30T04:40:14.828Z,12.05
2022-09-30T04:42:42.858Z,11.95
2022-09-30T04:45:10.501Z,11.90
2022-09-30T04:47:36.959Z,12.02
2022-09-30T04:50:03.680Z,12.03
2022-09-30T04:52:30.157Z,12.05
2022-09-30T04:54:57.067Z,11.99
2022-09-30T04:57:23.543Z,11.85
2022-09-30T04:59:50.752Z,12.02
2022-09-30T05:02:17.304Z,12.00
2022-09-30T05:04:43.758Z,12.11
2022-09-30T05:07:10.233Z,12.06
2022-09-30T05:09:36.760Z,12.10
2022-09-30T05:12:03.549Z,12.00
2022-09-30T05:14:30.482Z,12.08
2022-09-30T05:16:56.917Z,12.01
2022-09-30T05:19:23.684Z,11.92
2022-09-30T05:21:50.197Z,11.74
2022-09-30T05:24:17.507Z,11.65
2022-09-30T05:26:44.174Z,11.64
2022-09-30T05:29:10.943Z,11.76
2022-09-30T05:31:37.468Z,11.94
2022-09-30T05:34:04.276Z,11.95
2022-09-30T05:36:30.710Z,12.12
2022-09-30T05:38:57.154Z,12.11
2022-09-30T05:41:24.404Z,12.07
2022-09-30T05:43:51.061Z,12.31
2022-09-30T05:46:18.192Z,12.39
2022-09-30T05:48:44.792Z,12.40
2022-09-30T05:51:11.374Z,12.41
2022-09-30T05:53:38.614Z,12.64
2022-09-30T05:56:06.049Z,12.74
2022-09-30T05:58:32.780Z,12.52
2022-09-30T06:01:09.277Z,12.67
2022-09-30T06:03:38.853Z,12.84
2022-09-30T06:06:06.259Z,12.79
2022-09-30T06:08:32.682Z,12.79
2022-09-30T06:10:59.623Z,12.65
2022-09-30T06:13:27.059Z,12.66
2022-09-30T06:16:00.750Z,12.73
2022-09-30T06:18:27.514Z,13.02
2022-09-30T06:21:01.465Z,13.25
2022-09-30T06:23:28.525Z,13.25
2022-09-30T06:25:55.418Z,13.43
2022-09-30T06:28:22.834Z,13.48
2022-09-30T06:30:49.386Z,13.22
2022-09-30T06:33:16.021Z,13.05
2022-09-30T06:35:42.921Z,13.11
2022-09-30T06:38:10.169Z,13.05
2022-09-30T06:40:37.220Z,13.08
2022-09-30T06:43:04.503Z,13.22
2022-09-30T06:45:33.440Z,13.22
2022-09-30T06:48:01.228Z,13.23
2022-09-30T06:50:28.009Z,13.32
2022-09-30T06:52:59.218Z,13.25
2022-09-30T06:55:27.203Z,13.45
2022-09-30T06:57:55.404Z,13.36
2022-09-30T07:00:22.155Z,13.26
2022-09-30T07:02:51.650Z,13.43
2022-09-30T07:05:18.095Z,13.46
2022-09-30T07:07:44.538Z,13.41
2022-09-30T07:10:11.143Z,13.02
2022-09-30T07:12:37.971Z,13.21
2022-09-30T07:15:04.615Z,13.51
2022-09-30T07:17:31.057Z,13.40
2022-09-30T07:19:58.697Z,13.55
2022-09-30T07:22:28.389Z,13.49
2022-09-30T07:24:55.548Z,13.70
2022-09-30T07:27:22.065Z,13.57
2022-09-30T07:30:08.400Z,13.72
2022-09-30T07:32:35.045Z,13.97
2022-09-30T07:35:01.577Z,14.00
2022-09-30T07:37:28.050Z,14.05
2022-09-30T07:39:54.543Z,13.55
2022-09-30T07:42:23.958Z,13.99
2022-09-30T07:44:52.177Z,14.30
2022-09-30T07:47:18.981Z,14.16
2022-09-30T07:49:45.791Z,13.99
2022-09-30T07:52:12.472Z,14.28
2022-09-30T07:54:43.363Z,14.40
2022-09-30T07:57:12.250Z,14.59
2022-09-30T07:59:40.514Z,14.62
2022-09-30T08:02:08.380Z,15.08
2022-09-30T08:04:35.073Z,15.29
2022-09-30T08:07:02.811Z,15.63
2022-09-30T08:09:30.148Z,15.08
2022-09-30T08:11:57.146Z,15.39
2022-09-30T08:14:27.694Z,15.13
2022-09-30T08:16:55.846Z,14.37
2022-09-30T08:19:23.250Z,14.77
2022-09-30T08:21:50.400Z,15.43
2022-09-30T08:24:16.927Z,16.53
2022-09-30T08:26:43.379Z,16.38
2022-09-30T08:29:17.020Z,17.69
2022-09-30T08:31:46.817Z,18.10
2022-09-30T08:34:13.369Z,18.66
2022-09-30T08:36:40.006Z,18.81
2022-09-30T08:39:06.997Z,17.94
2022-09-30T08:41:33.385Z,18.36
2022-09-30T08:44:18.111Z,18.79
2022-09-30T08:46:54.795Z,18.54
2022-09-30T08:49:44.726Z,19.35
2022-09-30T08:52:24.494Z,18.70
2022-09-30T08:54:57.585Z,18.18
2022-09-30T08:57:24.630Z,18.77
2022-09-30T08:59:56.394Z,19.04
2022-09-30T09:02:27.676Z,19.81
2022-09-30T09:04:57.730Z,18.75
2022-09-30T09:07:39.479Z,19.54
2022-09-30T09:10:12.034Z,19.29
2022-09-30T09:12:49.527Z,20.45
2022-09-30T09:15:22.104Z,20.29
2022-09-30T09:18:04.601Z,20.06
2022-09-30T09:20:47.423Z,20.42
2022-09-30T09:23:14.038Z,20.85
2022-09-30T09:25:40.642Z,20.25
2022-09-30T09:28:18.251Z,21.11
2022-09-30T09:30:48.070Z,21.53
2022-09-30T09:33:22.995Z,21.36
2022-09-30T09:36:05.556Z,21.76
2022-09-30T09:38:50.916Z,20.90
2022-09-30T09:41:17.353Z,21.46
2022-09-30T09:43:43.865Z,20.98
2022-09-30T09:46:15.858Z,21.43
2022-09-30T09:48:42.621Z,21.43
2022-09-30T09:51:27.750Z,20.66
2022-09-30T09:53:58.132Z,21.33
2022-09-30T09:56:32.317Z,21.68
2022-09-30T09:59:08.976Z,21.34
2022-09-30T10:01:37.287Z,21.46
2022-09-30T10:04:09.702Z,21.66
2022-09-30T10:06:44.722Z,20.43
2022-09-30T10:09:23.644Z,20.42
2022-09-30T10:11:50.189Z,20.48
2022-09-30T10:14:20.421Z,19.90
2022-09-30T10:16:46.953Z,19.69
2022-09-30T10:19:20.057Z,20.66
2022-09-30T10:21:46.628Z,19.98
2022-09-30T10:24:39.345Z,20.29
2022-09-30T10:27:39.076Z,19.94
2022-09-30T10:30:05.778Z,19.99
2022-09-30T10:32:32.623Z,20.30
2022-09-30T10:35:16.411Z,20.20
2022-09-30T10:37:51.611Z,21.28
2022-09-30T10:40:18.474Z,21.32
2022-09-30T10:42:47.631Z,21.07
2022-09-30T10:45:22.671Z,20.84
2022-09-30T10:47:50.955Z,20.79
2022-09-30T10:50:20.617Z,21.55
2022-09-30T10:52:50.167Z,22.22
2022-09-30T10:55:19.592Z,21.28
2022-09-30T10:57:46.872Z,20.94
2022-09-30T11:00:23.776Z,20.25
2022-09-30T11:03:06.670Z,20.62
2022-09-30T11:05:48.505Z,19.77
2022-09-30T11:08:14.926Z,20.44
2022-09-30T11:10:57.302Z,20.61
2022-09-30T11:13:27.514Z,20.34
2022-09-30T11:16:09.150Z,19.81
2022-09-30T11:18:45.216Z,20.05
2022-09-30T11:21:34.758Z,19.77
2022-09-30T11:24:24.487Z,19.84
2022-09-30T11:26:57.110Z,19.77
2022-09-30T11:29:42.386Z,18.92
2022-09-30T11:32:16.448Z,18.23
2022-09-30T11:35:02.385Z,18.66
2022-09-30T11:37:38.120Z,18.97
2022-09-30T11:40:05.229Z,19.39
2022-09-30T11:42:43.677Z,19.81
2022-09-30T11:45:30.448Z,20.37
2022-09-30T11:48:05.890Z,21.06
2022-09-30T11:50:52.545Z,21.46
2022-09-30T11:53:18.921Z,21.00
2022-09-30T11:55:45.399Z,20.43
2022-09-30T11:58:39.900Z,20.74
2022-09-30T12:01:25.215Z,21.74
2022-09-30T12:03:55.367Z,21.74
2022-09-30T12:06:28.699Z,21.77
2022-09-30T12:08:59.919Z,21.67
2022-09-30T12:11:49.758Z,21.46
2022-09-30T12:14:20.632Z,21.50
2022-09-30T12:16:48.083Z,21.11
2022-09-30T12:19:25.414Z,20.82
2022-09-30T12:22:21.898Z,20.23
2022-09-30T12:24:48.345Z,20.81
2022-09-30T12:27:17.585Z,21.13
2022-09-30T12:30:16.472Z,21.02
2022-09-30T12:32:52.207Z,20.39
2022-09-30T12:35:24.729Z,20.84
2022-09-30T12:38:00.355Z,20.02
2022-09-30T12:40:52.101Z,19.57
2022-09-30T12:43:38.671Z,20.52
2022-09-30T12:46:05.206Z,21.72
2022-09-30T12:48:37.814Z,21.32
2022-09-30T12:51:04.710Z,20.63
2022-09-30T12:53:33.209Z,20.41
2022-09-30T12:56:04.589Z,20.47
2022-09-30T12:58:37.503Z,19.91
2022-09-30T13:01:07.094Z,19.70
2022-09-30T13:03:48.647Z,19.55
2022-09-30T13:06:16.226Z,18.95
2022-09-30T13:09:01.591Z,19.17
2022-09-30T13:11:44.217Z,19.34
2022-09-30T13:14:13.635Z,19.22
2022-09-30T13:16:58.841Z,18.83
2022-09-30T13:19:33.716Z,19.00
2022-09-30T13:22:18.510Z,19.17
2022-09-30T13:25:05.318Z,19.32
2022-09-30T13:27:35.987Z,19.46
2022-09-30T13:30:22.342Z,19.17
2022-09-30T13:33:05.146Z,18.57
2022-09-30T13:35:37.462Z,18.72
2022-09-30T13:38:13.068Z,18.83
2022-09-30T13:41:01.273Z,18.68
2022-09-30T13:43:42.810Z,18.43
2022-09-30T13:46:30.295Z,18.35
2022-09-30T13:49:00.406Z,18.24
2022-09-30T13:51:35.328Z,18.40
2022-09-30T13:54:23.323Z,18.07
2022-09-30T13:56:49.942Z,17.97
2022-09-30T13:59:16.878Z,17.89
2022-09-30T14:01:53.577Z,18.20
2022-09-30T14:04:21.450Z,18.00
2022-09-30T14:07:06.686Z,17.55
2022-09-30T14:09:41.388Z,17.62
2022-09-30T14:12:26.430Z,17.36
2022-09-30T14:15:19.306Z,17.43
2022-09-30T14:17:45.784Z,17.44
2022-09-30T14:20:22.056Z,17.33
2022-09-30T14:22:48.881Z,17.38
2022-09-30T14:25:16.839Z,17.33
2022-09-30T14:27:48.745Z,17.48
2022-09-30T14:30:21.989Z,17.61
2022-09-30T14:32:50.442Z,17.57
2022-09-30T14:35:21.131Z,17.53
2022-09-30T14:37:49.946Z,17.52
2022-09-30T14:40:18.034Z,17.53
2022-09-30T14:42:45.449Z,17.63
2022-09-30T14:45:26.135Z,17.71
2022-09-30T14:47:54.169Z,17.61
2022-09-30T14:50:23.002Z,17.60
2022-09-30T14:52:53.472Z,17.47
2022-09-30T14:55:28.290Z,17.55
2022-09-30T14:57:55.798Z,17.78
2022-09-30T15:00:31.101Z,17.56
2022-09-30T15:02:59.155Z,17.61
2022-09-30T15:05:26.787Z,17.42
2022-09-30T15:07:53.730Z,17.43
2022-09-30T15:10:22.000Z,17.45
2022-09-30T15:12:50.367Z,17.26
2022-09-30T15:15:23.019Z,17.48
2022-09-30T15:17:51.910Z,17.36
2022-09-30T15:20:27.966Z,17.31
2022-09-30T15:22:55.118Z,17.21
2022-09-30T15:25:22.090Z,17.26
2022-09-30T15:27:49.983Z,17.16
2022-09-30T15:30:17.239Z,17.11
2022-09-30T15:32:44.526Z,17.13
2022-09-30T15:35:15.345Z,17.06
2022-09-30T15:37:43.450Z,17.06
2022-09-30T15:40:34.849Z,16.97
2022-09-30T15:43:03.255Z,17.05
2022-09-30T15:45:34.637Z,16.95
2022-09-30T15:48:07.218Z,17.04
2022-09-30T15:50:37.177Z,16.98
2022-09-30T15:53:05.100Z,16.86
2022-09-30T15:55:37.382Z,16.94
2022-09-30T15:58:05.112Z,16.95
2022-09-30T16:00:35.410Z,16.94
2022-09-30T16:03:17.577Z,16.90
2022-09-30T16:05:50.647Z,16.89
2022-09-30T16:08:27.932Z,16.84
2022-09-30T16:10:57.131Z,16.77
2022-09-30T16:13:25.960Z,16.92
2022-09-30T16:15:54.147Z,16.86
2022-09-30T16:18:23.226Z,16.84
2022-09-30T16:20:58.093Z,16.70
2022-09-30T16:23:37.789Z,16.74
2022-09-30T16:26:13.246Z,16.51
2022-09-30T16:28:39.645Z,16.58
2022-09-30T16:31:07.106Z,16.68
2022-09-30T16:33:38.101Z,16.62
2022-09-30T16:36:04.632Z,16.51
2022-09-30T16:38:31.080Z,16.43
2022-09-30T16:40:58.233Z,16.38
2022-09-30T16:43:26.931Z,16.38
2022-09-30T16:45:53.459Z,16.41
2022-09-30T16:48:21.507Z,16.52
2022-09-30T16:50:49.534Z,16.44
2022-09-30T16:53:16.080Z,16.45
2022-09-30T16:55:43.001Z,16.45
2022-09-30T16:58:10.874Z,16.22
2022-09-30T17:00:37.381Z,16.23
2022-09-30T17:03:03.857Z,16.21
2022-09-30T17:05:30.274Z,16.17
2022-09-30T17:07:57.927Z,16.25
2022-09-30T17:10:25.818Z,16.24
2022-09-30T17:12:52.300Z,16.18
2022-09-30T17:15:19.518Z,16.30
2022-09-30T17:17:46.351Z,16.24
2022-09-30T17:20:12.933Z,16.09
2022-09-30T17:22:39.386Z,16.04
2022-09-30T17:25:06.155Z,16.10
2022-09-30T17:27:32.834Z,16.13
2022-09-30T17:30:01.206Z,16.09
2022-09-30T17:32:27.706Z,16.02
2022-09-30T17:34:54.139Z,16.06
2022-09-30T17:37:21.070Z,16.11
2022-09-30T17:39:47.525Z,16.00
2022-09-30T17:42:33.184Z,15.91
2022-09-30T17:44:59.979Z,15.90
2022-09-30T17:47:26.904Z,15.87
2022-09-30T17:49:53.503Z,15.86
2022-09-30T17:52:20.233Z,15.59
2022-09-30T17:54:52.021Z,15.76
2022-09-30T17:57:19.459Z,15.81
2022-09-30T17:59:46.686Z,15.84
2022-09-30T18:02:15.433Z,15.67
2022-09-30T18:04:42.001Z,15.78
2022-09-30T18:07:10.179Z,15.60
2022-09-30T18:09:37.970Z,15.72
2022-09-30T18:12:04.874Z,15.77
2022-09-30T18:14:38.378Z,15.69
2022-09-30T18:17:05.427Z,15.56
2022-09-30T18:19:32.836Z,15.60
2022-09-30T18:21:59.260Z,15.55
2022-09-30T18:24:44.170Z,15.48
2022-09-30T18:27:11.008Z,15.51
2022-09-30T18:29:38.561Z,15.52
2022-09-30T18:32:05.626Z,15.54
2022-09-30T18:34:32.328Z,15.45
2022-09-30T18:37:03.934Z,15.47
2022-09-30T18:39:31.206Z,15.38
2022-09-30T18:41:57.738Z,15.49
2022-09-30T18:44:25.402Z,15.54
2022-09-30T18:46:53.070Z,15.54
2022-09-30T18:49:19.506Z,15.56
2022-09-30T18:51:45.953Z,15.53
2022-09-30T18:54:15.206Z,15.47
2022-09-30T18:56:43.873Z,15.44
2022-09-30T18:59:18.041Z,15.36
2022-09-30T19:01:47.451Z,15.39
2022-09-30T19:04:13.998Z,15.34
2022-09-30T19:06:42.245Z,15.33
2022-09-30T19:09:09.146Z,15.32
2022-09-30T19:11:36.201Z,15.22
2022-09-30T19:14:03.567Z,15.41
2022-09-30T19:16:35.287Z,15.43
2022-09-30T19:19:04.885Z,15.34
2022-09-30T19:21:36.786Z,15.43
2022-09-30T19:24:07.350Z,15.49
2022-09-30T19:26:36.176Z,15.68
2022-09-30T19:29:03.838Z,15.73
2022-09-30T19:31:30.780Z,15.51
2022-09-30T19:33:58.938Z,15.48
2022-09-30T19:36:26.907Z,15.44
2022-09-30T19:39:08.937Z,15.36
2022-09-30T19:41:37.447Z,15.49
2022-09-30T19:44:04.361Z,15.53
2022-09-30T19:46:30.791Z,15.47
2022-09-30T19:48:57.260Z,15.41
2022-09-30T19:51:23.836Z,15.46
2022-09-30T19:54:03.473Z,15.47
2022-09-30T19:56:30.933Z,15.37
2022-09-30T19:59:00.034Z,15.34
2022-09-30T20:01:30.967Z,15.42
2022-09-30T20:04:00.093Z,15.45
2022-09-30T20:06:28.100Z,15.34
2022-09-30T20:08:59.856Z,15.32
2022-09-30T20:11:27.684Z,15.31
2022-09-30T20:14:15.309Z,15.32
2022-09-30T20:16:43.525Z,15.33
2022-09-30T20:19:10.509Z,15.34
2022-09-30T20:21:41.886Z,15.40
2022-09-30T20:24:12.938Z,15.33
2022-09-30T20:26:39.865Z,15.40
2022-09-30T20:29:09.645Z,15.32
2022-09-30T20:31:36.941Z,15.24
2022-09-30T20:34:04.159Z,15.27
2022-09-30T20:36:31.118Z,15.31
2022-09-30T20:39:03.222Z,15.34
2022-09-30T20:41:31.759Z,15.57
2022-09-30T20:43:58.769Z,15.51
2022-09-30T20:46:26.888Z,15.32
2022-09-30T20:48:53.656Z,15.39
2022-09-30T20:51:20.645Z,15.29
2022-09-30T20:53:51.431Z,15.27
2022-09-30T20:56:19.699Z,15.21
2022-09-30T20:58:46.593Z,15.20
2022-09-30T21:01:13.991Z,15.20
2022-09-30T21:03:41.282Z,15.32
2022-09-30T21:06:10.551Z,15.38
2022-09-30T21:08:38.729Z,15.42
2022-09-30T21:11:07.123Z,15.54
2022-09-30T21:13:33.709Z,15.36
2022-09-30T21:16:04.028Z,15.22
2022-09-30T21:18:31.008Z,15.25
2022-09-30T21:20:58.856Z,14.95
2022-09-30T21:23:29.330Z,15.11
2022-09-30T21:25:56.710Z,15.17
2022-09-30T21:28:23.277Z,15.24
2022-09-30T21:30:49.991Z,15.18
2022-09-30T21:33:16.438Z,15.12
2022-09-30T21:35:42.846Z,15.16
2022-09-30T21:38:09.331Z,15.20
2022-09-30T21:40:35.742Z,15.13
2022-09-30T21:43:02.230Z,15.10
2022-09-30T21:45:28.718Z,15.11
2022-09-30T21:48:02.274Z,15.17
2022-09-30T21:50:28.721Z,15.19
2022-09-30T21:52:55.532Z,15.14
2022-09-30T21:55:21.924Z,15.13
2022-09-30T21:57:48.398Z,15.14
2022-09-30T22:00:16.297Z,15.16
2022-09-30T22:02:43.657Z,15.14
2022-09-30T22:05:10.848Z,15.17
2022-09-30T22:07:38.018Z,15.20
2022-09-30T22:10:04.714Z,15.16
2022-09-30T22:12:33.050Z,15.11
2022-09-30T22:14:59.465Z,15.08
2022-09-30T22:17:25.876Z,15.16
2022-09-30T22:19:52.319Z,15.16
2022-09-30T22:22:18.749Z,15.24
2022-09-30T22:24:45.159Z,15.17
2022-09-30T22:27:12.138Z,15.16
2022-09-30T22:29:38.556Z,15.21
2022-09-30T22:32:05.027Z,15.20
2022-09-30T22:34:51.182Z,15.15
2022-09-30T22:37:36.267Z,15.12
2022-09-30T22:40:02.750Z,15.13
2022-09-30T22:42:29.264Z,15.21
2022-09-30T22:44:55.844Z,15.22
2022-09-30T22:47:22.255Z,15.20
2022-09-30T22:49:48.798Z,15.36
2022-09-30T22:52:15.260Z,15.35
2022-09-30T22:54:41.654Z,15.33
2022-09-30T22:57:09.065Z,15.11
2022-09-30T22:59:36.453Z,14.94
2022-09-30T23:02:04.861Z,15.09
2022-09-30T23:04:32.521Z,14.97
2022-09-30T23:06:59.115Z,15.09
2022-09-30T23:09:25.530Z,15.08
2022-09-30T23:11:53.569Z,15.03
2022-09-30T23:14:20.974Z,14.86
2022-09-30T23:16:47.621Z,14.97
2022-09-30T23:19:14.054Z,15.01
2022-09-30T23:21:40.895Z,15.05
2022-09-30T23:24:07.422Z,15.10
2022-09-30T23:26:34.267Z,15.18
2022-09-30T23:29:02.005Z,15.11
2022-09-30T23:31:28.906Z,15.07
2022-09-30T23:33:56.871Z,15.18
2022-09-30T23:36:26.910Z,15.21
2022-09-30T23:38:53.766Z,15.17
2022-09-30T23:41:20.347Z,15.14
2022-09-30T23:43:48.497Z,15.16
2022-09-30T23:46:16.745Z,15.19
2022-09-30T23:48:45.803Z,15.27
2022-09-30T23:51:13.201Z,15.28
2022-09-30T23:53:39.673Z,15.27
2022-09-30T23:56:08.159Z,15.20
2022-09-30T23:58:35.613Z,15.24
